Terminal Aerodrome Forecast
Issued by NWS Charleston, WV

Current Version | Previous Version | Graphics & Text | Print | Product List | Glossary On
Versions: 1 2 3 4 5 6 7 8 9 10 11 12 13 14 15 16 17 18 19 20 21 22 23 24 25 26 27
000
FTUS41 KRLX 210200 AAA
TAFCRW
TAF AMD
KCRW 210246Z 2103/2124 00000KT P6SM SKC
     FM210500 19004KT 6SM BR SKC
     FM211000 20005KT 4SM BR BKN025
     FM211400 23009KT 6SM SHRA BR VCTS BKN025CB
     FM212100 24011G17KT 6SM SHRA BR BKN025
     FM212200 25010KT P6SM BKN040=

USA.gov is the U.S. government's official web portal to all federal, state and local government web resources and services.